Time,TemperatureF,DewpointF,PressureIn,WindDirection,WindDirectionDegrees,WindSpeedMPH,WindSpeedGustMPH,Humidity,HourlyPrecipIn,Conditions,Clouds,dailyrainin,SoftwareType,DateUTC
2013-02-22 00:00:00,23.0,17.7,30.23,NNW,346,4.0,9.0,80,0.00,,,0.00,Wunderground v.1.15,2013-02-22 05:00:00,
2013-02-22 00:05:00,23.3,18.0,30.24,NNE,23,5.0,9.0,80,0.00,,,0.00,Wunderground v.1.15,2013-02-22 05:05:00,
2013-02-22 00:15:00,23.6,18.3,30.25,WNW,301,6.0,6.0,80,0.00,,,0.00,Wunderground v.1.15,2013-02-22 05:15:00,
2013-02-22 00:20:00,23.7,18.4,30.25,NNW,331,6.0,6.0,80,0.00,,,0.00,Wunderground v.1.15,2013-02-22 05:20:00,
2013-02-22 00:25:00,23.9,18.6,30.26,North,360,6.0,6.0,80,0.00,,,0.00,Wunderground v.1.15,2013-02-22 05:25:00,
2013-02-22 00:35:00,24.0,18.7,30.26,North,5,5.0,12.0,80,0.00,,,0.00,Wunderground v.1.15,2013-02-22 05:35:00,
2013-02-22 00:40:00,24.3,19.0,30.26,NNW,345,6.0,11.0,80,0.00,,,0.00,Wunderground v.1.15,2013-02-22 05:40:00,
2013-02-22 00:45:00,24.5,18.9,30.27,NW,326,8.0,11.0,79,0.00,,,0.00,Wunderground v.1.15,2013-02-22 05:45:00,
2013-02-22 00:50:00,24.5,18.9,30.27,North,350,7.0,9.0,79,0.00,,,0.00,Wunderground v.1.15,2013-02-22 05:50:00,
2013-02-22 00:55:00,24.5,18.9,30.27,NNE,30,6.0,14.0,79,0.00,,,0.00,Wunderground v.1.15,2013-02-22 05:55:00,
2013-02-22 01:00:00,24.6,19.0,30.27,NE,34,7.0,11.0,79,0.00,,,0.00,Wunderground v.1.15,2013-02-22 06:00:00,
2013-02-22 01:05:00,24.7,19.1,30.26,NNE,13,7.0,11.0,79,0.00,,,0.00,Wunderground v.1.15,2013-02-22 06:05:00,
2013-02-22 01:15:00,24.7,19.1,30.27,NE,53,5.0,6.0,79,0.00,,,0.00,Wunderground v.1.15,2013-02-22 06:15:00,
2013-02-22 01:20:00,24.6,19.0,30.27,NNW,344,4.0,6.0,79,0.00,,,0.00,Wunderground v.1.15,2013-02-22 06:20:00,
2013-02-22 01:25:00,24.6,19.3,30.27,NNW,346,5.0,6.0,80,0.00,,,0.00,Wunderground v.1.15,2013-02-22 06:25:00,
2013-02-22 01:30:00,24.6,19.3,30.28,North,360,5.0,5.0,80,0.00,,,0.00,Wunderground v.1.15,2013-02-22 06:30:00,
2013-02-22 01:35:00,24.6,19.3,30.27,North,350,6.0,6.0,80,0.00,,,0.00,Wunderground v.1.15,2013-02-22 06:35:00,
2013-02-22 01:40:00,24.6,19.3,30.28,NNW,344,5.0,5.0,80,0.00,,,0.00,Wunderground v.1.15,2013-02-22 06:40:00,
2013-02-22 01:50:00,24.6,19.3,30.27,ENE,68,4.0,4.0,80,0.00,,,0.00,Wunderground v.1.15,2013-02-22 06:50:00,
2013-02-22 01:55:00,24.5,18.9,30.27,NNE,29,3.0,4.0,79,0.00,,,0.00,Wunderground v.1.15,2013-02-22 06:55:00,
2013-02-22 02:00:00,24.4,19.1,30.27,North,355,2.0,5.0,80,0.00,,,0.00,Wunderground v.1.15,2013-02-22 07:00:00,
2013-02-22 02:05:00,24.4,19.1,30.27,NW,314,2.0,5.0,80,0.00,,,0.00,Wunderground v.1.15,2013-02-22 07:05:00,
2013-02-22 02:15:00,24.5,19.2,30.26,North,5,1.0,3.0,80,0.00,,,0.00,Wunderground v.1.15,2013-02-22 07:15:00,
2013-02-22 02:25:00,24.4,19.1,30.26,West,280,0.0,4.0,80,0.00,,,0.00,Wunderground v.1.15,2013-02-22 07:25:00,
2013-02-22 02:30:00,24.0,18.4,30.27,SSW,205,1.0,2.0,79,0.00,,,0.00,Wunderground v.1.15,2013-02-22 07:30:00,
2013-02-22 02:35:00,23.6,18.3,30.27,SW,219,0.0,2.0,80,0.00,,,0.00,Wunderground v.1.15,2013-02-22 07:35:00,
2013-02-22 02:40:00,23.4,18.7,30.27,West,274,0.0,0.0,82,0.00,,,0.00,Wunderground v.1.15,2013-02-22 07:40:00,
2013-02-22 02:45:00,23.4,18.7,30.27,SSW,203,1.0,5.0,82,0.00,,,0.00,Wunderground v.1.15,2013-02-22 07:45:00,
2013-02-22 02:55:00,23.9,18.9,30.27,WSW,256,1.0,1.0,81,0.00,,,0.00,Wunderground v.1.15,2013-02-22 07:55:00,
2013-02-22 03:00:00,24.1,19.1,30.28,West,259,1.0,1.0,81,0.00,,,0.00,Wunderground v.1.15,2013-02-22 08:00:00,
2013-02-22 03:05:00,24.2,18.9,30.28,North,9,1.0,1.0,80,0.00,,,0.00,Wunderground v.1.15,2013-02-22 08:05:00,
2013-02-22 03:15:00,23.9,18.9,30.29,West,279,0.0,0.0,81,0.00,,,0.00,Wunderground v.1.15,2013-02-22 08:15:00,
2013-02-22 03:20:00,23.8,18.8,30.29,NNW,344,0.0,0.0,81,0.00,,,0.00,Wunderground v.1.15,2013-02-22 08:20:00,
2013-02-22 03:25:00,23.8,18.8,30.30,WNW,291,0.0,0.0,81,0.00,,,0.00,Wunderground v.1.15,2013-02-22 08:25:00,
2013-02-22 03:35:00,23.6,18.3,30.29,South,187,1.0,1.0,80,0.00,,,0.00,Wunderground v.1.15,2013-02-22 08:35:00,
2013-02-22 03:40:00,23.4,18.4,30.30,East,101,0.0,1.0,81,0.00,,,0.00,Wunderground v.1.15,2013-02-22 08:40:00,
2013-02-22 03:45:00,23.1,17.8,30.30,East,101,0.0,1.0,80,0.00,,,0.00,Wunderground v.1.15,2013-02-22 08:45:00,
2013-02-22 03:50:00,22.5,17.5,30.30,East,101,0.0,0.0,81,0.00,,,0.00,Wunderground v.1.15,2013-02-22 08:50:00,
2013-02-22 03:55:00,21.6,16.7,30.30,East,101,0.0,0.0,81,0.00,,,0.00,Wunderground v.1.15,2013-02-22 08:55:00,
2013-02-22 04:00:00,21.1,16.7,30.30,East,101,0.0,0.0,83,0.00,,,0.00,Wunderground v.1.15,2013-02-22 09:00:00,
2013-02-22 04:10:00,20.3,16.2,30.30,East,101,0.0,0.0,84,0.00,,,0.00,Wunderground v.1.15,2013-02-22 09:10:00,
2013-02-22 04:15:00,20.2,16.7,30.30,East,101,0.0,0.0,86,0.00,,,0.00,Wunderground v.1.15,2013-02-22 09:15:00,
2013-02-22 04:20:00,20.4,16.9,30.30,East,101,0.0,0.0,86,0.00,,,0.00,Wunderground v.1.15,2013-02-22 09:20:00,
2013-02-22 04:25:00,20.3,16.5,30.30,East,101,0.0,0.0,85,0.00,,,0.00,Wunderground v.1.15,2013-02-22 09:25:00,
2013-02-22 04:30:00,20.2,16.7,30.30,East,101,0.0,0.0,86,0.00,,,0.00,Wunderground v.1.15,2013-02-22 09:30:00,
2013-02-22 04:35:00,20.0,16.2,30.30,East,101,0.0,0.0,85,0.00,,,0.00,Wunderground v.1.15,2013-02-22 09:35:00,
2013-02-22 04:45:00,19.3,15.8,30.31,East,101,0.0,0.0,86,0.00,,,0.00,Wunderground v.1.15,2013-02-22 09:45:00,
2013-02-22 04:50:00,19.1,15.9,30.31,East,101,0.0,0.0,87,0.00,,,0.00,Wunderground v.1.15,2013-02-22 09:50:00,
2013-02-22 04:55:00,19.3,16.3,30.31,East,101,0.0,0.0,88,0.00,,,0.00,Wunderground v.1.15,2013-02-22 09:55:00,
2013-02-22 05:00:00,19.7,17.2,30.31,East,101,0.0,0.0,90,0.00,,,0.00,Wunderground v.1.15,2013-02-22 10:00:00,
2013-02-22 05:05:00,19.9,16.9,30.31,East,101,0.0,0.0,88,0.00,,,0.00,Wunderground v.1.15,2013-02-22 10:05:00,
2013-02-22 05:15:00,19.5,16.3,30.32,East,101,0.0,0.0,87,0.00,,,0.00,Wunderground v.1.15,2013-02-22 10:15:00,
2013-02-22 05:25:00,19.5,16.0,30.32,ENE,68,0.0,0.0,86,0.00,,,0.00,Wunderground v.1.15,2013-02-22 10:25:00,
2013-02-22 05:30:00,18.5,14.5,30.32,ENE,68,0.0,0.0,84,0.00,,,0.00,Wunderground v.1.15,2013-02-22 10:30:00,
2013-02-22 05:35:00,18.0,14.8,30.32,ENE,68,0.0,0.0,87,0.00,,,0.00,Wunderground v.1.15,2013-02-22 10:35:00,
2013-02-22 05:40:00,17.7,14.8,30.32,ENE,68,0.0,0.0,88,0.00,,,0.00,Wunderground v.1.15,2013-02-22 10:40:00,
2013-02-22 05:45:00,17.5,14.6,30.33,ENE,68,0.0,0.0,88,0.00,,,0.00,Wunderground v.1.15,2013-02-22 10:45:00,
2013-02-22 05:50:00,17.0,14.1,30.33,ENE,68,0.0,0.0,88,0.00,,,0.00,Wunderground v.1.15,2013-02-22 10:50:00,
2013-02-22 06:00:00,16.6,13.9,30.35,ENE,68,0.0,0.0,89,0.00,,,0.00,Wunderground v.1.15,2013-02-22 11:00:00,
2013-02-22 06:05:00,16.5,13.8,30.35,ENE,68,0.0,0.0,89,0.00,,,0.00,Wunderground v.1.15,2013-02-22 11:05:00,
2013-02-22 06:15:00,16.3,13.9,30.36,ENE,68,0.0,0.0,90,0.00,,,0.00,Wunderground v.1.15,2013-02-22 11:15:00,
2013-02-22 06:20:00,16.2,13.8,30.36,ENE,68,0.0,0.0,90,0.00,,,0.00,Wunderground v.1.15,2013-02-22 11:20:00,
2013-02-22 06:30:00,16.5,14.3,30.37,ENE,68,0.0,0.0,91,0.00,,,0.00,Wunderground v.1.15,2013-02-22 11:30:00,
2013-02-22 06:35:00,16.7,14.8,30.38,ENE,68,0.0,0.0,92,0.00,,,0.00,Wunderground v.1.15,2013-02-22 11:35:00,
2013-02-22 06:40:00,16.4,14.2,30.39,ENE,68,0.0,0.0,91,0.00,,,0.00,Wunderground v.1.15,2013-02-22 11:40:00,
2013-02-22 06:45:00,15.8,13.1,30.39,ENE,68,0.0,0.0,89,0.00,,,0.00,Wunderground v.1.15,2013-02-22 11:45:00,
2013-02-22 06:50:00,15.7,13.3,30.40,ENE,68,0.0,0.0,90,0.00,,,0.00,Wunderground v.1.15,2013-02-22 11:50:00,
2013-02-22 06:55:00,15.9,13.7,30.40,ENE,68,0.0,0.0,91,0.00,,,0.00,Wunderground v.1.15,2013-02-22 11:55:00,
2013-02-22 07:00:00,16.3,14.4,30.39,ENE,68,0.0,0.0,92,0.00,,,0.00,Wunderground v.1.15,2013-02-22 12:00:00,
2013-02-22 07:10:00,16.8,14.9,30.39,ENE,68,0.0,0.0,92,0.00,,,0.00,Wunderground v.1.15,2013-02-22 12:10:00,
2013-02-22 07:15:00,17.5,15.6,30.39,ENE,68,0.0,0.0,92,0.00,,,0.00,Wunderground v.1.15,2013-02-22 12:15:00,
2013-02-22 07:20:00,18.4,16.7,30.39,East,89,0.0,0.0,93,0.00,,,0.00,Wunderground v.1.15,2013-02-22 12:20:00,
2013-02-22 07:25:00,18.9,17.0,30.39,SSE,165,0.0,0.0,92,0.00,,,0.00,Wunderground v.1.15,2013-02-22 12:25:00,
2013-02-22 07:30:00,20.3,18.3,30.40,SSE,165,0.0,0.0,92,0.00,,,0.00,Wunderground v.1.15,2013-02-22 12:30:00,
2013-02-22 07:35:00,21.3,18.8,30.41,South,175,0.0,0.0,90,0.00,,,0.00,Wunderground v.1.15,2013-02-22 12:35:00,
2013-02-22 07:45:00,22.9,19.3,30.41,SSE,160,1.0,1.0,86,0.00,,,0.00,Wunderground v.1.15,2013-02-22 12:45:00,
2013-02-22 07:50:00,23.6,19.8,30.41,SSE,160,0.0,2.0,85,0.00,,,0.00,Wunderground v.1.15,2013-02-22 12:50:00,
2013-02-22 07:55:00,24.2,19.8,30.41,SSE,160,1.0,2.0,83,0.00,,,0.00,Wunderground v.1.15,2013-02-22 12:55:00,
2013-02-22 08:00:00,25.0,20.6,30.41,SSE,160,0.0,0.0,83,0.00,,,0.00,Wunderground v.1.15,2013-02-22 13:00:00,
2013-02-22 08:05:00,25.9,20.9,30.41,SSE,160,0.0,0.0,81,0.00,,,0.00,Wunderground v.1.15,2013-02-22 13:05:00,
2013-02-22 08:15:00,26.7,21.1,30.41,West,259,0.0,0.0,79,0.00,,,0.00,Wunderground v.1.15,2013-02-22 13:15:00,
2013-02-22 08:20:00,27.4,21.4,30.41,West,259,0.0,0.0,78,0.00,,,0.00,Wunderground v.1.15,2013-02-22 13:20:00,
2013-02-22 08:25:00,27.8,20.9,30.40,West,259,0.0,0.0,75,0.00,,,0.00,Wunderground v.1.15,2013-02-22 13:25:00,
2013-02-22 08:30:00,28.1,20.9,30.40,SSW,207,0.0,1.0,74,0.00,,,0.00,Wunderground v.1.15,2013-02-22 13:30:00,
2013-02-22 08:35:00,28.5,21.6,30.40,WSW,250,0.0,2.0,75,0.00,,,0.00,Wunderground v.1.15,2013-02-22 13:35:00,
2013-02-22 08:40:00,29.0,21.4,30.40,SSW,194,0.0,0.0,73,0.00,,,0.00,Wunderground v.1.15,2013-02-22 13:40:00,
2013-02-22 08:45:00,30.0,22.4,30.39,SSW,194,0.0,0.0,73,0.00,,,0.00,Wunderground v.1.15,2013-02-22 13:45:00,
2013-02-22 08:55:00,31.6,22.2,30.39,SSW,194,0.0,0.0,68,0.00,,,0.00,Wunderground v.1.15,2013-02-22 13:55:00,
2013-02-22 09:00:00,31.9,22.2,30.40,SSW,194,0.0,1.0,67,0.00,,,0.00,Wunderground v.1.15,2013-02-22 14:00:00,
2013-02-22 09:05:00,31.8,21.7,30.39,SSW,194,0.0,2.0,66,0.00,,,0.00,Wunderground v.1.15,2013-02-22 14:05:00,
2013-02-22 09:15:00,30.7,21.4,30.40,SSW,195,1.0,1.0,68,0.00,,,0.00,Wunderground v.1.15,2013-02-22 14:15:00,
2013-02-22 09:20:00,30.8,21.8,30.40,SSW,195,1.0,1.0,69,0.00,,,0.00,Wunderground v.1.15,2013-02-22 14:20:00,
2013-02-22 09:30:00,31.7,22.0,30.40,SSW,206,1.0,1.0,67,0.00,,,0.00,Wunderground v.1.15,2013-02-22 14:30:00,
2013-02-22 09:35:00,32.0,21.9,30.40,NW,325,1.0,1.0,66,0.00,,,0.00,Wunderground v.1.15,2013-02-22 14:35:00,
2013-02-22 09:40:00,32.3,21.8,30.40,SW,229,1.0,1.0,65,0.00,,,0.00,Wunderground v.1.15,2013-02-22 14:40:00,
2013-02-22 09:45:00,32.7,21.9,30.39,SW,221,0.0,1.0,64,0.00,,,0.00,Wunderground v.1.15,2013-02-22 14:45:00,
2013-02-22 09:50:00,32.9,22.0,30.39,South,187,1.0,1.0,64,0.00,,,0.00,Wunderground v.1.15,2013-02-22 14:50:00,
2013-02-22 09:55:00,33.0,22.1,30.39,South,188,1.0,1.0,64,0.00,,,0.00,Wunderground v.1.15,2013-02-22 14:55:00,
2013-02-22 10:00:00,33.0,22.1,30.39,South,188,1.0,1.0,64,0.00,,,0.00,Wunderground v.1.15,2013-02-22 15:00:00,
2013-02-22 10:10:00,33.7,22.1,30.39,SSE,156,1.0,2.0,62,0.00,,,0.00,Wunderground v.1.15,2013-02-22 15:10:00,
2013-02-22 10:15:00,34.1,20.9,30.39,North,5,1.0,2.0,58,0.00,,,0.00,Wunderground v.1.15,2013-02-22 15:15:00,
2013-02-22 10:20:00,34.4,21.1,30.39,NNE,23,1.0,1.0,58,0.00,,,0.00,Wunderground v.1.15,2013-02-22 15:20:00,
2013-02-22 10:25:00,34.7,21.4,30.39,NNE,23,0.0,1.0,58,0.00,,,0.00,Wunderground v.1.15,2013-02-22 15:25:00,
2013-02-22 10:30:00,35.0,20.4,30.39,NE,53,1.0,2.0,55,0.00,,,0.00,Wunderground v.1.15,2013-02-22 15:30:00,
2013-02-22 10:40:00,35.5,20.9,30.39,SE,138,1.0,3.0,55,0.00,,,0.00,Wunderground v.1.15,2013-02-22 15:40:00,
2013-02-22 10:45:00,35.5,20.9,30.39,South,185,1.0,3.0,55,0.00,,,0.00,Wunderground v.1.15,2013-02-22 15:45:00,
2013-02-22 10:50:00,35.4,20.4,30.38,South,186,1.0,1.0,54,0.00,,,0.00,Wunderground v.1.15,2013-02-22 15:50:00,
2013-02-22 10:55:00,35.7,20.7,30.38,NE,40,0.0,1.0,54,0.00,,,0.00,Wunderground v.1.15,2013-02-22 15:55:00,
2013-02-22 11:00:00,35.9,20.9,30.38,NE,40,0.0,0.0,54,0.00,,,0.00,Wunderground v.1.15,2013-02-22 16:00:00,
2013-02-22 11:05:00,35.8,20.8,30.38,NNW,345,1.0,1.0,54,0.00,,,0.00,Wunderground v.1.15,2013-02-22 16:05:00,
2013-02-22 11:15:00,35.8,20.8,30.38,NE,46,1.0,5.0,54,0.00,,,0.00,Wunderground v.1.15,2013-02-22 16:15:00,
2013-02-22 11:20:00,35.6,19.7,30.37,NNW,348,2.0,2.0,52,0.00,,,0.00,Wunderground v.1.15,2013-02-22 16:20:00,
2013-02-22 11:25:00,35.8,21.2,30.37,WSW,250,1.0,2.0,55,0.00,,,0.00,Wunderground v.1.15,2013-02-22 16:25:00,
2013-02-22 11:30:00,36.1,20.6,30.37,NNW,340,1.0,1.0,53,0.00,,,0.00,Wunderground v.1.15,2013-02-22 16:30:00,
2013-02-22 11:35:00,36.5,21.0,30.36,SSE,157,1.0,1.0,53,0.00,,,0.00,Wunderground v.1.15,2013-02-22 16:35:00,
2013-02-22 11:40:00,36.2,20.7,30.36,South,175,1.0,1.0,53,0.00,,,0.00,Wunderground v.1.15,2013-02-22 16:40:00,
2013-02-22 11:50:00,36.1,21.0,30.36,SE,146,1.0,1.0,54,0.00,,,0.00,Wunderground v.1.15,2013-02-22 16:50:00,
2013-02-22 11:55:00,36.5,20.5,30.36,SSE,150,1.0,1.0,52,0.00,,,0.00,Wunderground v.1.15,2013-02-22 16:55:00,
2013-02-22 12:00:00,36.2,20.7,30.36,ESE,120,1.0,1.0,53,0.00,,,0.00,Wunderground v.1.15,2013-02-22 17:00:00,
2013-02-22 12:05:00,36.0,20.9,30.36,ENE,78,1.0,1.0,54,0.00,,,0.00,Wunderground v.1.15,2013-02-22 17:05:00,
2013-02-22 12:15:00,36.4,20.4,30.35,SSE,155,0.0,1.0,52,0.00,,,0.00,Wunderground v.1.15,2013-02-22 17:15:00,
2013-02-22 12:20:00,36.7,20.3,30.35,SE,141,1.0,2.0,51,0.00,,,0.00,Wunderground v.1.15,2013-02-22 17:20:00,
2013-02-22 12:25:00,37.0,21.4,30.35,SSE,167,1.0,2.0,53,0.00,,,0.00,Wunderground v.1.15,2013-02-22 17:25:00,
2013-02-22 12:30:00,37.4,20.4,30.35,SE,132,1.0,1.0,50,0.00,,,0.00,Wunderground v.1.15,2013-02-22 17:30:00,
2013-02-22 12:35:00,37.3,20.3,30.34,South,191,1.0,4.0,50,0.00,,,0.00,Wunderground v.1.15,2013-02-22 17:35:00,
2013-02-22 12:45:00,37.1,21.1,30.34,SSE,163,2.0,3.0,52,0.00,,,0.00,Wunderground v.1.15,2013-02-22 17:45:00,
2013-02-22 12:50:00,36.8,20.3,30.34,SSE,159,2.0,2.0,51,0.00,,,0.00,Wunderground v.1.15,2013-02-22 17:50:00,
2013-02-22 12:55:00,37.0,21.4,30.34,SE,145,1.0,2.0,53,0.00,,,0.00,Wunderground v.1.15,2013-02-22 17:55:00,
2013-02-22 13:00:00,37.2,20.7,30.34,SE,128,1.0,1.0,51,0.00,,,0.00,Wunderground v.1.15,2013-02-22 18:00:00,
2013-02-22 13:05:00,37.7,20.7,30.34,SE,129,1.0,1.0,50,0.00,,,0.00,Wunderground v.1.15,2013-02-22 18:05:00,
2013-02-22 13:15:00,38.4,21.4,30.34,South,188,1.0,3.0,50,0.00,,,0.00,Wunderground v.1.15,2013-02-22 18:15:00,
2013-02-22 13:20:00,38.3,20.8,30.34,SSE,154,1.0,1.0,49,0.00,,,0.00,Wunderground v.1.15,2013-02-22 18:20:00,
2013-02-22 13:25:00,38.0,20.0,30.34,SSE,167,2.0,2.0,48,0.00,,,0.00,Wunderground v.1.15,2013-02-22 18:25:00,
2013-02-22 13:30:00,37.8,20.3,30.34,SSE,167,1.0,1.0,49,0.00,,,0.00,Wunderground v.1.15,2013-02-22 18:30:00,
2013-02-22 13:35:00,37.7,20.2,30.34,South,176,1.0,1.0,49,0.00,,,0.00,Wunderground v.1.15,2013-02-22 18:35:00,
2013-02-22 13:40:00,37.4,20.0,30.34,SSW,194,1.0,3.0,49,0.00,,,0.00,Wunderground v.1.15,2013-02-22 18:40:00,
2013-02-22 13:45:00,37.3,20.3,30.34,SSW,196,1.0,3.0,50,0.00,,,0.00,Wunderground v.1.15,2013-02-22 18:45:00,
2013-02-22 13:50:00,37.5,20.5,30.34,SSW,196,0.0,0.0,50,0.00,,,0.00,Wunderground v.1.15,2013-02-22 18:50:00,
2013-02-22 14:00:00,38.0,20.5,30.33,SSW,196,0.0,0.0,49,0.00,,,0.00,Wunderground v.1.15,2013-02-22 19:00:00,
2013-02-22 14:05:00,38.6,21.1,30.33,SSW,194,0.0,1.0,49,0.00,,,0.00,Wunderground v.1.15,2013-02-22 19:05:00,
2013-02-22 14:15:00,38.9,20.9,30.32,South,190,0.0,0.0,48,0.00,,,0.00,Wunderground v.1.15,2013-02-22 19:15:00,
2013-02-22 14:20:00,39.1,21.0,30.32,South,190,0.0,1.0,48,0.00,,,0.00,Wunderground v.1.15,2013-02-22 19:20:00,
2013-02-22 14:25:00,38.9,20.4,30.32,South,190,0.0,1.0,47,0.00,,,0.00,Wunderground v.1.15,2013-02-22 19:25:00,
2013-02-22 14:35:00,38.4,21.4,30.33,SSE,167,2.0,5.0,50,0.00,,,0.00,Wunderground v.1.15,2013-02-22 19:35:00,
2013-02-22 14:40:00,38.0,20.5,30.33,South,188,2.0,2.0,49,0.00,,,0.00,Wunderground v.1.15,2013-02-22 19:40:00,
2013-02-22 14:45:00,37.9,20.4,30.33,SSW,211,1.0,2.0,49,0.00,,,0.00,Wunderground v.1.15,2013-02-22 19:45:00,
2013-02-22 14:50:00,37.9,20.4,30.33,SSW,206,1.0,1.0,49,0.00,,,0.00,Wunderground v.1.15,2013-02-22 19:50:00,
2013-02-22 14:55:00,37.9,20.4,30.33,SSW,206,0.0,1.0,49,0.00,,,0.00,Wunderground v.1.15,2013-02-22 19:55:00,
2013-02-22 15:00:00,37.9,20.4,30.33,SSW,206,0.0,0.0,49,0.00,,,0.00,Wunderground v.1.15,2013-02-22 20:00:00,
2013-02-22 15:05:00,38.0,20.0,30.33,SSE,152,0.0,0.0,48,0.00,,,0.00,Wunderground v.1.15,2013-02-22 20:05:00,
2013-02-22 15:15:00,38.3,20.8,30.33,SSE,152,0.0,0.0,49,0.00,,,0.00,Wunderground v.1.15,2013-02-22 20:15:00,
2013-02-22 15:20:00,38.7,21.2,30.33,SSE,155,0.0,0.0,49,0.00,,,0.00,Wunderground v.1.15,2013-02-22 20:20:00,
2013-02-22 15:25:00,38.6,21.1,30.33,SSE,155,0.0,1.0,49,0.00,,,0.00,Wunderground v.1.15,2013-02-22 20:25:00,
2013-02-22 15:30:00,38.6,20.6,30.33,SSW,207,0.0,0.0,48,0.00,,,0.00,Wunderground v.1.15,2013-02-22 20:30:00,
2013-02-22 15:35:00,38.4,21.4,30.33,South,187,1.0,2.0,50,0.00,,,0.00,Wunderground v.1.15,2013-02-22 20:35:00,
2013-02-22 15:45:00,37.9,21.4,30.33,South,190,1.0,1.0,51,0.00,,,0.00,Wunderground v.1.15,2013-02-22 20:45:00,
2013-02-22 15:50:00,37.7,21.6,30.33,South,190,0.0,0.0,52,0.00,,,0.00,Wunderground v.1.15,2013-02-22 20:50:00,
2013-02-22 15:55:00,37.7,21.2,30.32,South,190,0.0,0.0,51,0.00,,,0.00,Wunderground v.1.15,2013-02-22 20:55:00,
2013-02-22 16:00:00,37.5,21.5,30.32,South,190,0.0,0.0,52,0.00,,,0.00,Wunderground v.1.15,2013-02-22 21:00:00,
2013-02-22 16:05:00,37.3,21.3,30.32,South,190,0.0,0.0,52,0.00,,,0.00,Wunderground v.1.15,2013-02-22 21:05:00,
2013-02-22 16:15:00,37.2,20.7,30.31,South,190,0.0,0.0,51,0.00,,,0.00,Wunderground v.1.15,2013-02-22 21:15:00,
2013-02-22 16:25:00,37.1,20.6,30.31,South,190,0.0,0.0,51,0.00,,,0.00,Wunderground v.1.15,2013-02-22 21:25:00,
2013-02-22 16:30:00,37.0,21.4,30.31,South,190,0.0,0.0,53,0.00,,,0.00,Wunderground v.1.15,2013-02-22 21:30:00,
2013-02-22 16:35:00,36.9,20.0,30.31,South,190,0.0,0.0,50,0.00,,,0.00,Wunderground v.1.15,2013-02-22 21:35:00,
2013-02-22 16:40:00,36.9,20.4,30.31,South,190,0.0,0.0,51,0.00,,,0.00,Wunderground v.1.15,2013-02-22 21:40:00,
2013-02-22 16:45:00,36.9,20.9,30.30,South,190,0.0,0.0,52,0.00,,,0.00,Wunderground v.1.15,2013-02-22 21:45:00,
2013-02-22 16:50:00,36.9,20.4,30.30,South,190,0.0,0.0,51,0.00,,,0.00,Wunderground v.1.15,2013-02-22 21:50:00,
2013-02-22 17:00:00,36.8,20.8,30.31,South,190,0.0,0.0,52,0.00,,,0.00,Wunderground v.1.15,2013-02-22 22:00:00,
2013-02-22 17:05:00,36.6,20.2,30.31,South,190,0.0,0.0,51,0.00,,,0.00,Wunderground v.1.15,2013-02-22 22:05:00,
2013-02-22 17:15:00,36.2,20.7,30.31,South,190,0.0,0.0,53,0.00,,,0.00,Wunderground v.1.15,2013-02-22 22:15:00,
2013-02-22 17:20:00,36.0,20.5,30.30,South,190,0.0,0.0,53,0.00,,,0.00,Wunderground v.1.15,2013-02-22 22:20:00,
2013-02-22 17:25:00,35.8,20.8,30.31,South,190,0.0,0.0,54,0.00,,,0.00,Wunderground v.1.15,2013-02-22 22:25:00,
2013-02-22 17:30:00,35.6,21.0,30.31,South,190,0.0,0.0,55,0.00,,,0.00,Wunderground v.1.15,2013-02-22 22:30:00,
2013-02-22 17:40:00,34.8,23.9,30.31,South,190,0.0,0.0,64,0.00,,,0.00,Wunderground v.1.15,2013-02-22 22:40:00,
2013-02-22 17:45:00,34.4,23.1,30.30,South,190,0.0,0.0,63,0.00,,,0.00,Wunderground v.1.15,2013-02-22 22:45:00,
2013-02-22 17:50:00,33.8,22.1,30.30,South,190,0.0,0.0,62,0.00,,,0.00,Wunderground v.1.15,2013-02-22 22:50:00,
2013-02-22 17:55:00,33.5,23.4,30.31,South,190,0.0,0.0,66,0.00,,,0.00,Wunderground v.1.15,2013-02-22 22:55:00,
2013-02-22 18:00:00,33.1,23.7,30.31,South,190,0.0,0.0,68,0.00,,,0.00,Wunderground v.1.15,2013-02-22 23:00:00,
2013-02-22 18:05:00,32.8,23.0,30.31,South,190,0.0,0.0,67,0.00,,,0.00,Wunderground v.1.15,2013-02-22 23:05:00,
2013-02-22 18:15:00,32.3,24.3,30.31,South,190,0.0,0.0,72,0.00,,,0.00,Wunderground v.1.15,2013-02-22 23:15:00,
2013-02-22 18:20:00,32.1,24.4,30.31,South,190,0.0,0.0,73,0.00,,,0.00,Wunderground v.1.15,2013-02-22 23:20:00,
2013-02-22 18:25:00,31.9,24.6,30.31,South,190,0.0,0.0,74,0.00,,,0.00,Wunderground v.1.15,2013-02-22 23:25:00,
2013-02-22 18:30:00,31.7,25.0,30.31,South,190,0.0,0.0,76,0.00,,,0.00,Wunderground v.1.15,2013-02-22 23:30:00,
2013-02-22 18:35:00,31.6,24.6,30.31,South,190,0.0,0.0,75,0.00,,,0.00,Wunderground v.1.15,2013-02-22 23:35:00,
2013-02-22 18:40:00,31.5,24.8,30.32,South,190,0.0,0.0,76,0.00,,,0.00,Wunderground v.1.15,2013-02-22 23:40:00,
2013-02-22 18:45:00,31.4,25.0,30.32,South,190,0.0,0.0,77,0.00,,,0.00,Wunderground v.1.15,2013-02-22 23:45:00,
2013-02-22 18:55:00,31.1,25.3,30.32,South,190,0.0,0.0,79,0.00,,,0.00,Wunderground v.1.15,2013-02-22 23:55:00,
2013-02-22 19:00:00,30.9,25.2,30.32,South,190,0.0,0.0,79,0.00,,,0.00,Wunderground v.1.15,2013-02-23 00:00:00,
2013-02-22 19:05:00,30.8,25.1,30.32,South,190,0.0,0.0,79,0.00,,,0.00,Wunderground v.1.15,2013-02-23 00:05:00,
2013-02-22 19:15:00,30.5,24.8,30.31,South,190,0.0,0.0,79,0.00,,,0.00,Wunderground v.1.15,2013-02-23 00:15:00,
2013-02-22 19:20:00,30.5,25.1,30.32,South,190,0.0,0.0,80,0.00,,,0.00,Wunderground v.1.15,2013-02-23 00:20:00,
2013-02-22 19:30:00,30.4,24.7,30.31,South,190,0.0,0.0,79,0.00,,,0.00,Wunderground v.1.15,2013-02-23 00:30:00,
2013-02-22 19:40:00,30.3,24.3,30.32,South,190,0.0,0.0,78,0.00,,,0.00,Wunderground v.1.15,2013-02-23 00:40:00,
2013-02-22 19:45:00,30.3,24.0,30.32,South,190,0.0,0.0,77,0.00,,,0.00,Wunderground v.1.15,2013-02-23 00:45:00,
2013-02-22 19:50:00,30.3,24.0,30.32,South,190,0.0,0.0,77,0.00,,,0.00,Wunderground v.1.15,2013-02-23 00:50:00,
2013-02-22 19:55:00,30.3,24.6,30.32,South,190,0.0,0.0,79,0.00,,,0.00,Wunderground v.1.15,2013-02-23 00:55:00,
2013-02-22 20:00:00,30.2,24.8,30.31,South,190,0.0,0.0,80,0.00,,,0.00,Wunderground v.1.15,2013-02-23 01:00:00,
2013-02-22 20:05:00,30.2,24.5,30.32,South,190,0.0,0.0,79,0.00,,,0.00,Wunderground v.1.15,2013-02-23 01:05:00,
2013-02-22 20:15:00,30.1,24.7,30.33,South,190,0.0,0.0,80,0.00,,,0.00,Wunderground v.1.15,2013-02-23 01:15:00,
2013-02-22 20:20:00,30.1,24.7,30.33,South,190,0.0,0.0,80,0.00,,,0.00,Wunderground v.1.15,2013-02-23 01:20:00,
2013-02-22 20:25:00,30.1,24.4,30.33,South,190,0.0,0.0,79,0.00,,,0.00,Wunderground v.1.15,2013-02-23 01:25:00,
2013-02-22 20:30:00,30.1,24.4,30.32,South,190,0.0,0.0,79,0.00,,,0.00,Wunderground v.1.15,2013-02-23 01:30:00,
2013-02-22 20:35:00,30.1,23.4,30.32,South,190,0.0,1.0,76,0.00,,,0.00,Wunderground v.1.15,2013-02-23 01:35:00,
2013-02-22 20:40:00,30.8,23.2,30.32,South,169,0.0,1.0,73,0.00,,,0.00,Wunderground v.1.15,2013-02-23 01:40:00,
2013-02-22 20:50:00,32.0,23.0,30.32,SSE,161,2.0,2.0,69,0.00,,,0.00,Wunderground v.1.15,2013-02-23 01:50:00,
2013-02-22 20:55:00,32.3,23.3,30.33,South,182,3.0,3.0,69,0.00,,,0.00,Wunderground v.1.15,2013-02-23 01:55:00,
2013-02-22 21:00:00,32.3,23.3,30.33,South,186,3.0,3.0,69,0.00,,,0.00,Wunderground v.1.15,2013-02-23 02:00:00,
2013-02-22 21:05:00,32.2,23.2,30.32,South,180,2.0,7.0,69,0.00,,,0.00,Wunderground v.1.15,2013-02-23 02:05:00,
2013-02-22 21:15:00,32.1,23.1,30.32,South,175,2.0,3.0,69,0.00,,,0.00,Wunderground v.1.15,2013-02-23 02:15:00,
2013-02-22 21:20:00,32.0,23.0,30.33,SSE,157,2.0,2.0,69,0.00,,,0.00,Wunderground v.1.15,2013-02-23 02:20:00,
2013-02-22 21:25:00,31.9,23.2,30.33,South,187,1.0,2.0,70,0.00,,,0.00,Wunderground v.1.15,2013-02-23 02:25:00,
2013-02-22 21:30:00,31.9,23.2,30.33,SSW,193,1.0,1.0,70,0.00,,,0.00,Wunderground v.1.15,2013-02-23 02:30:00,
2013-02-22 21:35:00,31.8,23.1,30.32,SSW,192,1.0,1.0,70,0.00,,,0.00,Wunderground v.1.15,2013-02-23 02:35:00,
2013-02-22 21:40:00,31.7,23.0,30.32,SSE,153,0.0,2.0,70,0.00,,,0.00,Wunderground v.1.15,2013-02-23 02:40:00,
2013-02-22 21:45:00,31.8,23.5,30.32,SE,136,1.0,5.0,71,0.00,,,0.00,Wunderground v.1.15,2013-02-23 02:45:00,
2013-02-22 21:50:00,31.8,23.5,30.32,SE,125,1.0,3.0,71,0.00,,,0.00,Wunderground v.1.15,2013-02-23 02:50:00,
2013-02-22 22:00:00,31.7,23.4,30.32,South,170,1.0,1.0,71,0.00,,,0.00,Wunderground v.1.15,2013-02-23 03:00:00,
2013-02-22 22:05:00,31.7,23.7,30.32,SE,141,1.0,1.0,72,0.00,,,0.00,Wunderground v.1.15,2013-02-23 03:05:00,
2013-02-22 22:15:00,31.5,23.5,30.32,SSW,194,1.0,2.0,72,0.00,,,0.00,Wunderground v.1.15,2013-02-23 03:15:00,
2013-02-22 22:25:00,31.4,23.7,30.32,SSW,210,0.0,1.0,73,0.00,,,0.00,Wunderground v.1.15,2013-02-23 03:25:00,
2013-02-22 22:30:00,31.4,23.7,30.32,SSW,211,0.0,0.0,73,0.00,,,0.00,Wunderground v.1.15,2013-02-23 03:30:00,
2013-02-22 22:40:00,31.4,23.4,30.32,SSW,210,0.0,0.0,72,0.00,,,0.00,Wunderground v.1.15,2013-02-23 03:40:00,
2013-02-22 22:45:00,31.4,23.4,30.32,SSW,211,0.0,0.0,72,0.00,,,0.00,Wunderground v.1.15,2013-02-23 03:45:00,
2013-02-22 22:50:00,31.3,23.6,30.32,SSW,211,0.0,0.0,73,0.00,,,0.00,Wunderground v.1.15,2013-02-23 03:50:00,
2013-02-22 23:00:00,31.2,23.5,30.32,SSW,199,0.0,0.0,73,0.00,,,0.00,Wunderground v.1.15,2013-02-23 04:00:00,
2013-02-22 23:05:00,31.3,23.6,30.32,SSW,200,0.0,0.0,73,0.00,,,0.00,Wunderground v.1.15,2013-02-23 04:05:00,
2013-02-22 23:15:00,31.2,23.5,30.33,SSW,199,0.0,0.0,73,0.00,,,0.00,Wunderground v.1.15,2013-02-23 04:15:00,
2013-02-22 23:20:00,31.2,23.5,30.33,SSW,200,0.0,1.0,73,0.00,,,0.00,Wunderground v.1.15,2013-02-23 04:20:00,
2013-02-22 23:25:00,31.2,23.9,30.33,SSW,199,0.0,1.0,74,0.00,,,0.00,Wunderground v.1.15,2013-02-23 04:25:00,
2013-02-22 23:30:00,31.2,23.5,30.33,SSW,192,0.0,1.0,73,0.00,,,0.00,Wunderground v.1.15,2013-02-23 04:30:00,
2013-02-22 23:35:00,31.2,23.5,30.32,SSW,192,0.0,1.0,73,0.00,,,0.00,Wunderground v.1.15,2013-02-23 04:35:00,
2013-02-22 23:45:00,31.1,23.5,30.32,South,191,0.0,0.0,73,0.00,,,0.00,Wunderground v.1.15,2013-02-23 04:45:00,
2013-02-22 23:50:00,31.0,23.7,30.32,SSW,192,0.0,0.0,74,0.00,,,0.00,Wunderground v.1.15,2013-02-23 04:50:00,
2013-02-22 23:55:00,30.9,23.6,30.32,South,191,0.0,0.0,74,0.00,,,0.00,Wunderground v.1.15,2013-02-23 04:55:00,